Time;durP1;ratioP1;P1;durP2;ratioP2;P2;SDS_P1;SDS_P2;PMS_P1;PMS_P2;Temp;Humidity;BMP_temperature;BMP_pressure;BME280_temperature;BME280_humidity;BME280_pressure;Samples;Min_cycle;Max_cycle;Signal;HPM_P1;HPM_P2
2022/04/08 00:01:07;;;;;;;5.43;2.30;;;8.00;99.90;;;;;;5081518;28;20469;-63
2022/04/08 00:03:33;;;;;;;5.13;1.77;;;7.90;99.90;;;;;;5080591;28;20449;-63
2022/04/08 00:06:00;;;;;;;3.37;2.00;;;7.80;99.90;;;;;;5079868;28;20483;-63
2022/04/08 00:08:27;;;;;;;5.73;1.80;;;7.80;99.90;;;;;;5082140;28;20516;-63
2022/04/08 00:10:54;;;;;;;1.97;1.83;;;7.60;99.90;;;;;;5079320;28;20843;-63
2022/04/08 00:13:21;;;;;;;2.17;1.40;;;7.60;99.90;;;;;;5080444;28;20494;-62
2022/04/08 00:15:49;;;;;;;2.93;1.67;;;7.50;99.90;;;;;;5080936;28;20519;-63
2022/04/08 00:18:16;;;;;;;2.10;1.30;;;7.50;99.90;;;;;;5079999;28;20448;-62
2022/04/08 00:20:43;;;;;;;2.70;1.20;;;7.50;99.90;;;;;;5079565;28;20425;-63
2022/04/08 00:23:10;;;;;;;1.80;1.00;;;7.50;99.90;;;;;;5078685;28;20452;-63
2022/04/08 00:25:36;;;;;;;1.63;0.87;;;7.40;99.90;;;;;;5078658;28;20484;-63
2022/04/08 00:28:04;;;;;;;2.97;1.00;;;7.30;99.90;;;;;;5079101;28;20456;-62
2022/04/08 00:30:31;;;;;;;2.50;1.17;;;7.30;99.90;;;;;;5079363;28;20456;-62
2022/04/08 00:32:59;;;;;;;1.73;0.90;;;7.30;99.90;;;;;;5078009;28;20445;-63
2022/04/08 00:35:26;;;;;;;1.70;1.00;;;7.20;99.90;;;;;;5076764;28;20448;-63
2022/04/08 00:37:53;;;;;;;3.83;1.53;;;7.20;99.90;;;;;;5077032;28;20829;-63
2022/04/08 00:40:19;;;;;;;3.80;1.23;;;7.20;99.90;;;;;;5077263;28;20455;-63
2022/04/08 00:42:46;;;;;;;6.00;1.47;;;7.20;99.90;;;;;;5079628;28;20475;-62
2022/04/08 00:45:14;;;;;;;3.40;1.43;;;7.10;99.90;;;;;;5081616;28;20455;-63
2022/04/08 00:47:41;;;;;;;7.77;1.50;;;7.10;99.90;;;;;;5079772;28;20488;-63
2022/04/08 00:50:13;;;;;;;4.60;1.83;;;7.10;99.90;;;;;;5079873;28;20444;-62
2022/04/08 00:52:42;;;;;;;5.60;1.70;;;7.10;99.90;;;;;;5077999;28;20457;-63
2022/04/08 00:55:10;;;;;;;5.00;1.50;;;7.00;99.90;;;;;;5079545;28;20448;-63
2022/04/08 00:57:37;;;;;;;7.13;1.77;;;7.10;99.90;;;;;;5078020;28;20899;-62
2022/04/08 01:00:08;;;;;;;6.33;1.63;;;7.10;99.90;;;;;;5079901;28;20449;-62
2022/04/08 01:02:35;;;;;;;3.27;1.57;;;7.00;99.90;;;;;;5079127;28;20472;-63
2022/04/08 01:05:03;;;;;;;4.07;1.57;;;7.00;99.90;;;;;;5079884;28;20452;-63
2022/04/08 01:07:32;;;;;;;3.27;1.33;;;7.00;99.90;;;;;;5078683;28;20817;-63
2022/04/08 01:09:59;;;;;;;6.43;1.60;;;7.00;99.90;;;;;;5078860;28;20440;-62
2022/04/08 01:12:26;;;;;;;11.23;2.00;;;7.00;99.90;;;;;;5078742;28;20453;-63
2022/04/08 01:14:58;;;;;;;5.43;1.53;;;7.00;99.90;;;;;;5079200;28;20449;-63
2022/04/08 01:17:24;;;;;;;4.93;1.77;;;7.00;99.90;;;;;;5079213;28;20453;-63
2022/04/08 01:19:51;;;;;;;5.10;1.40;;;7.00;99.90;;;;;;5077747;28;20456;-63
2022/04/08 01:22:19;;;;;;;5.17;1.50;;;7.00;99.90;;;;;;5079351;28;20468;-63
2022/04/08 01:24:49;;;;;;;10.43;2.13;;;7.00;99.90;;;;;;5079726;28;20451;-63
2022/04/08 01:27:19;;;;;;;6.20;2.43;;;7.00;99.90;;;;;;5080376;28;20521;-63
2022/04/08 01:29:47;;;;;;;11.80;3.63;;;7.10;99.90;;;;;;5080921;28;20446;-63
2022/04/08 01:32:14;;;;;;;7.13;2.50;;;7.10;99.90;;;;;;5078412;28;20920;-63
2022/04/08 01:34:42;;;;;;;6.97;2.20;;;7.10;99.90;;;;;;5076696;28;20479;-63
2022/04/08 01:37:09;;;;;;;3.57;2.30;;;7.10;99.90;;;;;;5076316;28;20483;-63
2022/04/08 01:39:36;;;;;;;7.10;2.70;;;7.10;99.90;;;;;;5076925;28;20444;-63
2022/04/08 01:42:03;;;;;;;3.57;1.80;;;7.10;99.90;;;;;;5078077;28;20469;-63
2022/04/08 01:44:31;;;;;;;2.10;1.67;;;7.10;99.90;;;;;;5079568;28;20445;-64
2022/04/08 01:46:58;;;;;;;5.27;2.00;;;7.10;99.90;;;;;;5076845;28;20488;-63
2022/04/08 01:49:24;;;;;;;10.30;2.57;;;7.10;99.90;;;;;;5079005;28;20447;-63
2022/04/08 01:51:51;;;;;;;6.03;2.33;;;7.10;99.90;;;;;;5077602;28;20469;-63
2022/04/08 01:54:18;;;;;;;2.90;1.90;;;7.10;99.90;;;;;;5078741;28;20456;-63
2022/04/08 01:56:44;;;;;;;12.33;2.07;;;7.00;99.90;;;;;;5078019;28;20451;-63
2022/04/08 01:59:11;;;;;;;6.93;3.00;;;7.10;99.90;;;;;;5078736;28;20437;-62
2022/04/08 02:01:39;;;;;;;6.70;2.37;;;7.10;99.90;;;;;;5078015;28;20469;-63
2022/04/08 02:04:06;;;;;;;6.50;2.10;;;7.10;99.90;;;;;;5077399;28;20445;-63
2022/04/08 02:06:34;;;;;;;5.63;2.63;;;7.10;99.90;;;;;;5076993;28;20488;-63
2022/04/08 02:09:01;;;;;;;9.27;3.73;;;7.10;99.90;;;;;;5078573;28;20530;-63
2022/04/08 02:11:28;;;;;;;13.33;3.17;;;7.10;99.90;;;;;;5080156;28;20467;-63
2022/04/08 02:13:55;;;;;;;4.40;2.60;;;7.10;99.90;;;;;;5080416;28;20444;-63
2022/04/08 02:16:21;;;;;;;5.73;3.80;;;7.20;99.90;;;;;;5080414;28;20444;-63
2022/04/08 02:18:50;;;;;;;8.23;4.10;;;7.20;99.90;;;;;;5080116;28;20467;-63
2022/04/08 02:21:19;;;;;;;9.03;3.93;;;7.20;99.90;;;;;;5079702;28;20888;-63
2022/04/08 02:23:46;;;;;;;8.67;4.40;;;7.20;99.90;;;;;;5080296;28;20861;-63
2022/04/08 02:26:13;;;;;;;7.80;5.00;;;7.20;99.90;;;;;;5080998;28;20425;-63
2022/04/08 02:28:40;;;;;;;9.70;4.47;;;7.20;99.90;;;;;;5080541;28;20440;-63
2022/04/08 02:31:07;;;;;;;9.00;4.40;;;7.30;99.90;;;;;;5084534;28;20565;-63
2022/04/08 02:33:34;;;;;;;8.77;4.77;;;7.30;99.90;;;;;;5081598;28;20470;-63
2022/04/08 02:36:02;;;;;;;8.00;5.50;;;7.30;99.90;;;;;;5079484;28;20459;-63
2022/04/08 02:38:29;;;;;;;5.87;4.50;;;7.30;99.90;;;;;;5080119;28;20459;-63
2022/04/08 02:40:56;;;;;;;9.40;5.47;;;7.30;99.90;;;;;;5079277;28;20464;-63
2022/04/08 02:43:23;;;;;;;7.60;5.33;;;7.30;99.90;;;;;;5082445;28;20453;-63
2022/04/08 02:45:50;;;;;;;8.10;4.70;;;7.30;99.90;;;;;;5085677;28;20524;-62
2022/04/08 02:48:18;;;;;;;9.67;5.40;;;7.30;99.90;;;;;;5085430;28;20484;-63
2022/04/08 02:50:45;;;;;;;7.30;5.63;;;7.30;99.90;;;;;;5082257;28;20477;-63
2022/04/08 02:53:13;;;;;;;10.63;5.50;;;7.30;99.90;;;;;;5081700;28;20449;-63
2022/04/08 02:55:40;;;;;;;5.20;4.53;;;7.30;99.90;;;;;;5082602;28;20456;-63
2022/04/08 02:58:07;;;;;;;7.57;5.27;;;7.20;99.90;;;;;;5080654;28;20523;-63
2022/04/08 03:00:33;;;;;;;12.10;5.00;;;7.20;99.90;;;;;;5079332;28;21044;-63
2022/04/08 03:03:00;;;;;;;10.70;4.40;;;7.10;99.90;;;;;;5080218;28;20449;-63
2022/04/08 03:05:27;;;;;;;12.27;4.23;;;7.00;99.90;;;;;;5079800;28;20452;-63
2022/04/08 03:07:54;;;;;;;5.43;3.60;;;7.00;99.90;;;;;;5079161;28;20484;-63
2022/04/08 03:10:22;;;;;;;4.40;4.00;;;7.00;99.90;;;;;;5080137;28;20818;-63
2022/04/08 03:12:49;;;;;;;5.33;4.23;;;6.90;99.90;;;;;;5079270;28;20464;-63
2022/04/08 03:15:15;;;;;;;5.93;4.10;;;6.90;99.90;;;;;;5078614;28;20451;-62
2022/04/08 03:17:42;;;;;;;8.47;4.00;;;6.80;99.90;;;;;;5079770;28;20441;-63
2022/04/08 03:20:09;;;;;;;3.93;3.63;;;6.80;99.90;;;;;;5077497;28;20801;-63
2022/04/08 03:22:36;;;;;;;4.57;4.03;;;6.80;99.90;;;;;;5080244;28;20461;-63
2022/04/08 03:25:03;;;;;;;7.20;4.27;;;6.70;99.90;;;;;;5080908;28;20444;-63
2022/04/08 03:27:32;;;;;;;10.50;6.50;;;6.70;99.90;;;;;;5079417;28;20488;-63
2022/04/08 03:29:58;;;;;;;3.73;3.43;;;6.70;99.90;;;;;;5079432;28;20452;-64
2022/04/08 03:32:25;;;;;;;9.70;4.27;;;6.70;99.90;;;;;;5080909;28;20465;-63
2022/04/08 03:34:57;;;;;;;6.13;4.10;;;6.70;99.90;;;;;;5079220;28;20451;-63
2022/04/08 03:37:24;;;;;;;5.40;4.00;;;6.60;99.90;;;;;;5078305;28;20462;-63
2022/04/08 03:39:50;;;;;;;8.03;4.00;;;6.60;99.90;;;;;;5078062;28;20448;-63
2022/04/08 03:42:17;;;;;;;5.60;3.87;;;6.60;99.90;;;;;;5078074;28;20511;-63
2022/04/08 03:44:46;;;;;;;6.60;4.60;;;6.60;99.90;;;;;;5077720;28;20453;-63
2022/04/08 03:47:13;;;;;;;5.60;4.40;;;6.60;99.90;;;;;;5077820;28;20484;-62
2022/04/08 03:49:39;;;;;;;8.60;5.37;;;6.70;99.90;;;;;;5077620;28;20955;-63
2022/04/08 03:52:08;;;;;;;8.37;4.53;;;6.60;99.90;;;;;;5078581;28;20477;-63
2022/04/08 03:54:35;;;;;;;9.83;5.87;;;6.60;99.90;;;;;;5077292;28;20487;-63
2022/04/08 03:57:02;;;;;;;7.90;5.60;;;6.60;99.90;;;;;;5078010;28;20448;-63
2022/04/08 03:59:29;;;;;;;9.83;6.00;;;6.60;99.90;;;;;;5078882;28;20440;-62
2022/04/08 04:01:57;;;;;;;8.73;6.00;;;6.60;99.90;;;;;;5079347;28;20473;-63
2022/04/08 04:04:26;;;;;;;6.70;5.50;;;6.60;99.90;;;;;;5079226;28;20532;-63
2022/04/08 04:06:52;;;;;;;8.80;6.53;;;6.60;99.90;;;;;;5078752;28;20484;-63
2022/04/08 04:09:19;;;;;;;8.43;6.50;;;6.60;99.90;;;;;;5078425;28;20849;-63
2022/04/08 04:11:46;;;;;;;9.77;6.37;;;6.60;99.90;;;;;;5078642;28;20461;-63
2022/04/08 04:14:12;;;;;;;9.47;6.20;;;6.70;99.90;;;;;;5079384;28;20483;-63
2022/04/08 04:16:39;;;;;;;12.67;6.57;;;6.70;99.90;;;;;;5078019;28;20452;-63
2022/04/08 04:19:07;;;;;;;10.53;7.30;;;6.80;99.90;;;;;;5078390;28;20456;-64
2022/04/08 04:21:34;;;;;;;8.07;6.70;;;6.80;99.90;;;;;;5077826;28;20494;-63
2022/04/08 04:24:01;;;;;;;10.53;7.03;;;6.80;99.90;;;;;;5078716;28;20841;-63
2022/04/08 04:26:27;;;;;;;12.70;7.97;;;6.80;99.90;;;;;;5078654;28;20456;-63
2022/04/08 04:28:54;;;;;;;12.33;7.90;;;6.80;99.90;;;;;;5077405;28;21013;-64
2022/04/08 04:31:21;;;;;;;10.80;8.33;;;6.80;99.90;;;;;;5076451;28;20460;-63
2022/04/08 04:33:47;;;;;;;11.23;8.37;;;6.70;99.90;;;;;;5077037;28;20494;-63
2022/04/08 04:36:16;;;;;;;10.30;9.30;;;6.80;99.90;;;;;;5077364;28;20815;-62
2022/04/08 04:38:42;;;;;;;17.37;10.90;;;6.80;99.90;;;;;;5078010;28;20464;-63
2022/04/08 04:41:10;;;;;;;12.90;9.40;;;6.70;99.90;;;;;;5077058;28;20468;-63
2022/04/08 04:43:37;;;;;;;10.60;8.70;;;6.70;99.90;;;;;;5076895;28;20452;-67
2022/04/08 04:46:04;;;;;;;11.40;8.67;;;6.60;99.90;;;;;;5073677;28;20433;-67
2022/04/08 04:48:31;;;;;;;17.17;9.53;;;6.70;99.90;;;;;;5073920;28;20516;-67
2022/04/08 04:50:58;;;;;;;11.47;9.07;;;6.60;99.90;;;;;;5073450;28;20987;-67
2022/04/08 04:53:26;;;;;;;10.80;7.63;;;6.60;99.90;;;;;;5073925;28;20453;-67
2022/04/08 04:55:54;;;;;;;14.20;8.70;;;6.60;99.90;;;;;;5073486;28;20441;-66
2022/04/08 04:58:21;;;;;;;13.67;8.60;;;6.60;99.90;;;;;;5073447;28;20974;-67
2022/04/08 05:00:48;;;;;;;11.50;8.77;;;6.60;99.90;;;;;;5073651;28;20468;-66
2022/04/08 05:03:14;;;;;;;10.53;7.57;;;6.60;99.90;;;;;;5073329;28;20444;-66
2022/04/08 05:05:41;;;;;;;11.80;7.30;;;6.70;99.90;;;;;;5073667;28;20451;-66
2022/04/08 05:08:09;;;;;;;9.77;7.73;;;6.70;99.90;;;;;;5073570;28;20889;-67
2022/04/08 05:10:37;;;;;;;10.60;9.33;;;6.70;99.90;;;;;;5073663;28;20436;-67
2022/04/08 05:13:04;;;;;;;15.37;8.90;;;6.70;99.90;;;;;;5073497;28;20457;-67
2022/04/08 05:15:37;;;;;;;12.90;7.57;;;6.70;99.90;;;;;;5073554;28;20447;-67
2022/04/08 05:18:05;;;;;;;10.67;8.50;;;6.70;99.90;;;;;;5073447;28;20478;-67
2022/04/08 05:20:32;;;;;;;12.67;9.10;;;6.70;99.90;;;;;;5073019;28;20489;-67
2022/04/08 05:22:58;;;;;;;14.83;10.30;;;6.70;99.90;;;;;;5073458;28;20510;-66
2022/04/08 05:25:25;;;;;;;17.00;10.90;;;6.80;99.90;;;;;;5073463;28;20455;-67
2022/04/08 05:27:54;;;;;;;15.80;11.97;;;6.80;99.90;;;;;;5073728;28;20479;-66
2022/04/08 05:30:21;;;;;;;14.93;12.00;;;6.90;99.90;;;;;;5073726;28;20448;-66
2022/04/08 05:32:49;;;;;;;14.30;11.33;;;6.90;99.90;;;;;;5073053;28;20844;-66
2022/04/08 05:35:16;;;;;;;15.57;10.80;;;7.00;99.90;;;;;;5073398;28;20509;-66
2022/04/08 05:37:45;;;;;;;17.00;11.10;;;7.00;99.90;;;;;;5073913;28;20808;-66
2022/04/08 05:40:14;;;;;;;15.30;10.97;;;7.00;99.90;;;;;;5073732;28;20440;-66
2022/04/08 05:42:42;;;;;;;15.80;10.90;;;7.10;99.90;;;;;;5076290;28;20479;-66
2022/04/08 05:45:11;;;;;;;15.07;10.20;;;7.20;99.90;;;;;;5080592;28;20453;-66
2022/04/08 05:47:38;;;;;;;13.43;9.37;;;7.20;99.90;;;;;;5080186;28;20484;-66
2022/04/08 05:50:07;;;;;;;11.00;8.10;;;7.30;99.90;;;;;;5080557;28;20451;-66
2022/04/08 05:52:33;;;;;;;11.73;8.13;;;7.30;99.90;;;;;;5080003;28;20472;-66
2022/04/08 05:55:00;;;;;;;9.50;7.70;;;7.40;99.90;;;;;;5080214;28;20444;-66
2022/04/08 05:57:27;;;;;;;8.87;6.80;;;7.50;99.90;;;;;;5080206;28;20470;-67
2022/04/08 06:00:00;;;;;;;16.40;6.60;;;7.50;99.90;;;;;;5080162;28;20440;-66
2022/04/08 06:02:28;;;;;;;7.20;6.50;;;7.70;99.90;;;;;;5080049;28;20479;-66
2022/04/08 06:04:55;;;;;;;9.87;6.33;;;7.70;99.90;;;;;;5080177;28;20494;-66
2022/04/08 06:07:24;;;;;;;9.80;6.73;;;7.80;99.90;;;;;;5079752;28;20947;-67
2022/04/08 06:09:51;;;;;;;9.87;5.90;;;7.90;99.90;;;;;;5079918;28;20530;-66
2022/04/08 06:12:17;;;;;;;8.63;5.53;;;8.00;99.90;;;;;;5080275;28;20541;-66
2022/04/08 06:14:44;;;;;;;8.50;5.90;;;8.10;99.90;;;;;;5080182;28;20443;-66
2022/04/08 06:17:11;;;;;;;8.40;6.00;;;8.20;99.90;;;;;;5080248;28;20802;-66
2022/04/08 06:19:39;;;;;;;10.07;6.10;;;8.20;99.90;;;;;;5079407;28;20455;-66
2022/04/08 06:22:05;;;;;;;6.97;6.00;;;8.20;99.90;;;;;;5079664;28;20468;-67
2022/04/08 06:24:32;;;;;;;8.37;5.30;;;8.30;99.90;;;;;;5079771;28;20452;-67
2022/04/08 06:26:59;;;;;;;7.80;5.10;;;8.30;99.90;;;;;;5079280;28;20955;-67
2022/04/08 06:29:26;;;;;;;9.37;5.27;;;8.30;99.90;;;;;;5079632;28;20495;-67
2022/04/08 06:31:53;;;;;;;11.37;5.60;;;8.30;99.90;;;;;;5079812;28;20477;-67
2022/04/08 06:34:21;;;;;;;7.83;5.23;;;8.40;99.90;;;;;;5079508;28;20439;-66
2022/04/08 06:36:49;;;;;;;14.37;6.10;;;8.40;99.90;;;;;;5079585;28;20444;-67
2022/04/08 06:39:15;;;;;;;6.73;5.30;;;8.50;99.90;;;;;;5079392;28;20947;-67
2022/04/08 06:41:43;;;;;;;8.33;4.20;;;8.60;99.90;;;;;;5079687;28;20549;-67
2022/04/08 06:44:10;;;;;;;9.77;6.10;;;8.60;99.90;;;;;;5080535;28;20455;-66
2022/04/08 06:46:37;;;;;;;9.57;4.93;;;8.60;99.90;;;;;;5080809;28;20432;-66
2022/04/08 06:49:03;;;;;;;6.57;4.97;;;8.60;99.90;;;;;;5081185;28;20486;-66
2022/04/08 06:51:30;;;;;;;7.33;4.50;;;8.60;99.90;;;;;;5080140;28;20480;-67
2022/04/08 06:53:59;;;;;;;9.80;5.20;;;8.60;99.90;;;;;;5077262;28;20815;-67
2022/04/08 06:56:27;;;;;;;8.80;5.30;;;8.60;99.90;;;;;;5076060;28;20975;-67
2022/04/08 06:58:53;;;;;;;8.73;5.03;;;8.60;99.90;;;;;;5076178;28;20543;-67
2022/04/08 07:01:20;;;;;;;9.80;4.70;;;8.50;99.90;;;;;;5076102;28;20468;-67
2022/04/08 07:03:47;;;;;;;11.30;4.80;;;8.70;99.90;;;;;;5075789;28;20476;-66
2022/04/08 07:06:13;;;;;;;8.50;5.00;;;8.80;99.90;;;;;;5076159;28;20428;-66
2022/04/08 07:08:41;;;;;;;6.37;4.70;;;8.90;99.90;;;;;;5076015;28;20484;-66
2022/04/08 07:11:09;;;;;;;6.63;5.57;;;9.00;99.90;;;;;;5076017;28;20472;-67
2022/04/08 07:13:38;;;;;;;7.23;4.90;;;9.10;99.90;;;;;;5076463;28;20444;-67
2022/04/08 07:16:05;;;;;;;6.03;4.40;;;9.20;99.90;;;;;;5076296;28;20483;-66
2022/04/08 07:18:31;;;;;;;8.07;4.90;;;9.20;99.90;;;;;;5075647;28;20444;-66
2022/04/08 07:20:58;;;;;;;7.70;4.33;;;9.20;99.90;;;;;;5075634;28;20468;-67
2022/04/08 07:23:25;;;;;;;7.13;5.83;;;9.30;99.90;;;;;;5075840;28;20475;-67
2022/04/08 07:25:52;;;;;;;8.10;5.13;;;9.30;99.90;;;;;;5075804;28;20451;-66
2022/04/08 07:28:20;;;;;;;8.60;4.90;;;9.40;99.90;;;;;;5075291;28;20833;-67
2022/04/08 07:30:48;;;;;;;9.40;5.37;;;9.50;99.90;;;;;;5075365;28;20468;-66
2022/04/08 07:33:14;;;;;;;8.13;5.57;;;9.50;99.70;;;;;;5075417;28;20461;-66
2022/04/08 07:35:41;;;;;;;8.73;4.87;;;9.50;99.30;;;;;;5075371;28;20452;-66
2022/04/08 07:38:08;;;;;;;8.00;5.13;;;9.50;99.40;;;;;;5075549;28;20444;-66
2022/04/08 07:40:35;;;;;;;5.43;4.50;;;9.50;99.30;;;;;;5075435;28;20459;-67
2022/04/08 07:43:02;;;;;;;6.40;4.93;;;9.50;99.30;;;;;;5075419;28;20428;-66
2022/04/08 07:45:30;;;;;;;7.03;5.27;;;9.50;99.10;;;;;;5075387;28;20876;-66
2022/04/08 07:47:59;;;;;;;10.57;5.07;;;9.60;98.60;;;;;;5075647;28;20495;-66
2022/04/08 07:50:26;;;;;;;9.63;4.43;;;9.70;98.90;;;;;;5075285;28;20452;-66
2022/04/08 07:52:53;;;;;;;8.40;5.43;;;9.70;99.00;;;;;;5075117;28;20452;-66
2022/04/08 07:55:20;;;;;;;7.50;4.43;;;9.80;99.10;;;;;;5074725;28;20456;-67
2022/04/08 07:57:48;;;;;;;5.30;4.40;;;9.80;98.40;;;;;;5075126;28;20461;-67
2022/04/08 08:00:17;;;;;;;6.73;4.93;;;9.90;98.30;;;;;;5075007;28;20452;-67
2022/04/08 08:02:45;;;;;;;4.87;4.37;;;9.90;97.90;;;;;;5074878;28;20477;-68
2022/04/08 08:05:12;;;;;;;6.03;4.50;;;9.90;98.20;;;;;;5074543;28;20481;-68
2022/04/08 08:07:50;;;;;;;8.43;5.37;;;9.90;97.50;;;;;;5074948;28;20543;-68
2022/04/08 08:10:19;;;;;;;7.93;4.87;;;9.90;97.80;;;;;;5074941;28;20425;-68
2022/04/08 08:12:46;;;;;;;7.03;4.70;;;9.80;97.80;;;;;;5074778;28;20474;-68
2022/04/08 08:15:13;;;;;;;5.70;4.40;;;9.80;97.30;;;;;;5074686;28;20498;-68
2022/04/08 08:17:40;;;;;;;5.80;4.47;;;9.90;96.60;;;;;;5074587;28;20440;-67
2022/04/08 08:20:11;;;;;;;5.73;4.50;;;9.90;96.90;;;;;;5074111;28;20452;-67
2022/04/08 08:22:37;;;;;;;7.43;4.80;;;10.00;95.80;;;;;;5074434;28;20460;-67
2022/04/08 08:25:06;;;;;;;9.07;4.97;;;10.00;95.80;;;;;;5074548;28;20452;-67
2022/04/08 08:27:38;;;;;;;4.77;3.57;;;10.00;95.70;;;;;;5074386;28;20463;-67
2022/04/08 08:30:06;;;;;;;6.40;4.23;;;10.00;94.60;;;;;;5074267;28;20476;-67
2022/04/08 08:32:33;;;;;;;5.13;3.70;;;10.00;95.20;;;;;;5074314;28;20561;-68
2022/04/08 08:34:59;;;;;;;3.63;2.53;;;10.00;95.30;;;;;;5073954;28;20444;-67
2022/04/08 08:37:27;;;;;;;5.20;3.30;;;10.00;94.80;;;;;;5074243;28;20452;-67
2022/04/08 08:39:56;;;;;;;9.40;4.00;;;10.10;94.40;;;;;;5074162;28;20444;-67
2022/04/08 08:42:24;;;;;;;5.83;4.20;;;10.00;93.90;;;;;;5074066;28;20884;-67
2022/04/08 08:44:51;;;;;;;4.97;3.20;;;10.00;94.40;;;;;;5073782;28;20451;-67
2022/04/08 08:47:19;;;;;;;6.10;4.00;;;10.00;93.80;;;;;;5073732;28;20979;-68
2022/04/08 08:49:50;;;;;;;5.03;3.33;;;10.00;94.10;;;;;;5073940;28;20526;-67
2022/04/08 08:52:18;;;;;;;6.00;3.67;;;10.00;94.70;;;;;;5073822;28;20541;-66
2022/04/08 08:54:47;;;;;;;7.23;3.40;;;10.10;94.00;;;;;;5073868;28;20500;-67
2022/04/08 08:57:16;;;;;;;7.80;3.43;;;10.10;94.10;;;;;;5073988;28;20476;-67
2022/04/08 08:59:44;;;;;;;5.57;3.17;;;10.20;93.90;;;;;;5073983;28;20449;-67
2022/04/08 09:02:12;;;;;;;8.80;3.00;;;10.30;93.40;;;;;;5073681;28;20479;-67
2022/04/08 09:04:41;;;;;;;4.13;2.70;;;10.30;92.60;;;;;;5073879;28;20831;-67
2022/04/08 09:07:09;;;;;;;3.60;3.13;;;10.30;92.40;;;;;;5073554;28;20444;-67
2022/04/08 09:09:36;;;;;;;6.30;3.33;;;10.30;92.70;;;;;;5073631;28;20552;-67
2022/04/08 09:12:12;;;;;;;6.23;3.80;;;10.30;92.80;;;;;;5073646;28;20461;-67
2022/04/08 09:14:39;;;;;;;7.50;3.30;;;10.40;92.70;;;;;;5073414;28;20904;-67
2022/04/08 09:17:06;;;;;;;4.40;3.00;;;10.50;93.40;;;;;;5072959;28;20448;-67
2022/04/08 09:19:33;;;;;;;5.97;3.17;;;10.60;92.80;;;;;;5073099;28;20952;-67
2022/04/08 09:22:01;;;;;;;5.83;3.90;;;10.70;92.40;;;;;;5073624;28;20505;-66
2022/04/08 09:24:28;;;;;;;6.30;3.30;;;10.80;92.10;;;;;;5073408;28;20452;-68
2022/04/08 09:26:57;;;;;;;4.43;4.00;;;11.00;91.90;;;;;;5073466;28;20480;-69
2022/04/08 09:29:27;;;;;;;6.03;3.60;;;11.10;91.40;;;;;;5073498;28;20484;-68
2022/04/08 09:31:57;;;;;;;10.03;4.10;;;11.10;90.80;;;;;;5073425;28;20473;-68
2022/04/08 09:34:24;;;;;;;8.27;3.73;;;11.20;90.80;;;;;;5073410;28;20552;-68
2022/04/08 09:36:51;;;;;;;4.97;3.60;;;11.20;90.40;;;;;;5073031;28;20948;-68
2022/04/08 09:39:18;;;;;;;6.70;3.93;;;11.30;90.90;;;;;;5073402;28;20441;-68
2022/04/08 09:41:46;;;;;;;4.73;4.20;;;11.40;90.20;;;;;;5073269;28;20523;-69
2022/04/08 09:44:14;;;;;;;9.83;4.00;;;11.40;87.60;;;;;;5073240;28;20452;-68
2022/04/08 09:46:42;;;;;;;5.60;4.57;;;11.40;88.20;;;;;;5073348;28;20449;-68
2022/04/08 09:49:09;;;;;;;4.90;4.10;;;11.50;88.70;;;;;;5073100;28;20487;-68
2022/04/08 09:51:38;;;;;;;6.37;4.47;;;11.60;89.60;;;;;;5072911;28;21002;-68
2022/04/08 09:54:07;;;;;;;4.00;3.30;;;11.70;89.50;;;;;;5073238;28;20452;-68
2022/04/08 09:56:36;;;;;;;3.37;2.87;;;11.80;86.10;;;;;;5073165;28;20539;-68
2022/04/08 09:59:09;;;;;;;5.13;3.97;;;11.70;81.40;;;;;;5073289;28;20878;-68
2022/04/08 10:01:37;;;;;;;5.77;3.73;;;11.70;81.90;;;;;;5073084;28;20465;-68
2022/04/08 10:04:07;;;;;;;7.00;4.30;;;11.80;83.30;;;;;;5072766;28;20452;-68
2022/04/08 10:06:35;;;;;;;5.30;3.50;;;11.90;84.10;;;;;;5072903;28;20832;-68
2022/04/08 10:09:04;;;;;;;6.83;4.00;;;11.90;83.60;;;;;;5072939;28;20488;-68
2022/04/08 10:11:42;;;;;;;6.40;5.20;;;11.90;82.70;;;;;;5072885;28;20559;-68
2022/04/08 10:14:29;;;;;;;6.90;3.97;;;12.00;84.60;;;;;;5072647;28;20920;-67
2022/04/08 10:16:56;;;;;;;5.20;4.80;;;12.00;84.40;;;;;;5072941;28;20498;-68
2022/04/08 10:19:25;;;;;;;6.77;4.60;;;12.10;85.20;;;;;;5072621;28;20460;-68
2022/04/08 10:21:53;;;;;;;5.63;4.50;;;12.10;86.00;;;;;;5072463;28;20971;-68
2022/04/08 10:24:25;;;;;;;5.60;4.27;;;12.10;85.30;;;;;;5073023;28;20510;-68
2022/04/08 10:27:03;;;;;;;7.70;4.60;;;12.00;83.30;;;;;;5072944;28;20436;-67
2022/04/08 10:29:32;;;;;;;5.63;4.10;;;11.90;85.00;;;;;;5075209;28;20487;-68
2022/04/08 10:32:02;;;;;;;6.53;4.77;;;11.90;85.70;;;;;;5076599;28;20476;-67
2022/04/08 10:34:32;;;;;;;9.10;4.53;;;11.90;86.20;;;;;;5076608;28;20440;-67
2022/04/08 10:37:00;;;;;;;11.53;4.20;;;11.90;85.30;;;;;;5076614;28;20483;-67
2022/04/08 10:39:27;;;;;;;10.70;5.40;;;11.80;84.00;;;;;;5076576;28;20436;-67
2022/04/08 10:41:56;;;;;;;5.37;4.23;;;11.80;86.00;;;;;;5076325;28;20472;-67
2022/04/08 10:44:35;;;;;;;4.20;3.80;;;11.80;86.80;;;;;;5076389;28;20555;-67
2022/04/08 10:47:04;;;;;;;7.73;3.50;;;11.80;84.00;;;;;;5076327;28;20450;-67
2022/04/08 10:49:33;;;;;;;5.03;3.67;;;11.70;82.50;;;;;;5076824;28;20480;-67
2022/04/08 10:51:59;;;;;;;4.13;3.33;;;11.60;80.50;;;;;;5076587;28;20983;-68
2022/04/08 10:54:38;;;;;;;4.30;3.30;;;11.40;80.50;;;;;;5077451;28;20475;-67
2022/04/08 10:57:05;;;;;;;2.20;1.63;;;11.30;81.90;;;;;;5077121;28;20800;-67
2022/04/08 10:59:31;;;;;;;3.23;1.90;;;11.30;80.30;;;;;;5076071;28;20421;-67
2022/04/08 11:02:02;;;;;;;2.80;1.80;;;11.10;75.10;;;;;;5076024;28;20488;-67
2022/04/08 11:04:29;;;;;;;1.80;1.70;;;10.90;75.60;;;;;;5083413;28;20456;-65
2022/04/08 11:07:03;;;;;;;3.37;2.10;;;10.90;74.90;;;;;;5084018;28;20433;-65
2022/04/08 11:09:31;;;;;;;4.13;1.87;;;10.90;78.00;;;;;;5082369;28;20464;-65
2022/04/08 11:11:58;;;;;;;6.40;2.10;;;10.90;77.40;;;;;;5083179;28;20468;-65
2022/04/08 11:14:27;;;;;;;3.77;1.90;;;11.00;79.30;;;;;;5083311;28;20475;-64
2022/04/08 11:16:55;;;;;;;2.77;1.50;;;11.10;78.40;;;;;;5082839;28;20452;-64
2022/04/08 11:19:23;;;;;;;3.17;2.10;;;11.30;77.90;;;;;;5083717;28;20947;-64
2022/04/08 11:21:51;;;;;;;3.43;1.70;;;11.30;74.50;;;;;;5081768;28;20464;-64
2022/04/08 11:24:20;;;;;;;5.10;2.40;;;11.40;77.50;;;;;;5080126;28;20490;-64
2022/04/08 11:26:48;;;;;;;6.60;2.20;;;11.50;76.30;;;;;;5084044;28;20453;-64
2022/04/08 11:29:16;;;;;;;3.90;2.17;;;11.50;73.90;;;;;;5083451;28;20583;-64
2022/04/08 11:31:43;;;;;;;4.70;2.20;;;11.50;76.30;;;;;;5081718;28;20971;-64
2022/04/08 11:34:10;;;;;;;4.33;1.90;;;11.60;72.80;;;;;;5078267;28;20471;-70
2022/04/08 11:36:38;;;;;;;2.73;2.07;;;11.60;73.10;;;;;;5075578;28;20811;-68
2022/04/08 11:39:05;;;;;;;4.03;1.57;;;11.70;73.70;;;;;;5075374;28;20445;-67
2022/04/08 11:41:33;;;;;;;4.03;2.80;;;11.80;75.00;;;;;;5074570;28;20468;-68
2022/04/08 11:44:01;;;;;;;3.83;2.20;;;11.90;72.20;;;;;;5075284;28;20436;-67
2022/04/08 11:46:28;;;;;;;5.80;2.80;;;11.90;71.80;;;;;;5074997;28;20536;-68
2022/04/08 11:48:54;;;;;;;4.87;2.97;;;11.80;72.70;;;;;;5075115;28;20444;-68
2022/04/08 11:51:22;;;;;;;3.60;2.50;;;11.80;71.90;;;;;;5075559;28;20475;-67
2022/04/08 11:53:49;;;;;;;3.70;2.50;;;11.70;71.50;;;;;;5074778;28;20951;-67
2022/04/08 11:56:24;;;;;;;3.17;2.30;;;11.50;71.90;;;;;;5074726;28;20479;-68
2022/04/08 11:59:00;;;;;;;3.53;2.57;;;11.40;73.20;;;;;;5074984;28;20467;-68
2022/04/08 12:01:31;;;;;;;4.13;2.57;;;11.50;74.30;;;;;;5075230;28;20876;-69
2022/04/08 12:04:01;;;;;;;2.20;2.00;;;11.50;71.60;;;;;;5074843;28;20949;-69
2022/04/08 12:06:36;;;;;;;2.37;2.10;;;11.60;73.30;;;;;;5075106;28;20445;-69
2022/04/08 12:09:03;;;;;;;3.50;2.20;;;11.70;71.40;;;;;;5074821;28;20497;-69
2022/04/08 12:11:31;;;;;;;2.73;2.33;;;11.70;72.40;;;;;;5074769;28;20475;-68
2022/04/08 12:13:59;;;;;;;3.60;2.50;;;11.70;69.50;;;;;;5074699;28;20440;-68
2022/04/08 12:16:30;;;;;;;3.03;2.07;;;11.70;70.70;;;;;;5074724;28;20437;-68
2022/04/08 12:18:57;;;;;;;2.93;2.20;;;11.60;69.40;;;;;;5074537;28;20452;-68
2022/04/08 12:21:25;;;;;;;7.07;2.20;;;11.80;70.80;;;;;;5074463;28;20495;-68
2022/04/08 12:23:53;;;;;;;3.00;2.10;;;11.80;65.70;;;;;;5074319;28;20932;-66
2022/04/08 12:26:25;;;;;;;5.27;2.90;;;11.90;64.50;;;;;;5074705;28;20448;-70
2022/04/08 12:28:52;;;;;;;6.33;2.40;;;11.90;63.90;;;;;;5074569;28;20437;-69
2022/04/08 12:31:21;;;;;;;2.30;2.00;;;11.80;65.60;;;;;;5074368;28;20488;-67
2022/04/08 12:33:48;;;;;;;3.03;2.43;;;11.70;66.10;;;;;;5074227;28;20449;-68
2022/04/08 12:36:16;;;;;;;3.67;2.80;;;11.60;67.70;;;;;;5074431;28;20796;-68
2022/04/08 12:38:43;;;;;;;4.20;2.37;;;11.60;67.70;;;;;;5074085;28;20460;-68
2022/04/08 12:41:11;;;;;;;4.70;2.57;;;11.60;68.30;;;;;;5074046;28;20850;-68
2022/04/08 12:43:38;;;;;;;5.97;2.90;;;11.60;67.50;;;;;;5073888;28;20453;-68
2022/04/08 12:46:05;;;;;;;4.60;2.90;;;11.60;67.60;;;;;;5074031;28;20462;-68
2022/04/08 12:48:33;;;;;;;6.03;2.70;;;11.60;65.40;;;;;;5073780;28;20442;-68
2022/04/08 12:51:00;;;;;;;14.57;9.97;;;11.60;65.40;;;;;;5073757;28;20489;-68
2022/04/08 12:53:29;;;;;;;3.60;3.30;;;11.60;68.60;;;;;;5073065;28;20452;-68